CheckWX is a tool to help pilots better visualize weather data.  It is not intended as a substitute for an official pre-flight weather briefing.

05:02:54 UTC

KLCK TAF
Rickenbacker International Airport
Columbus, Ohio, USA
KLCK 260548Z 2606/2706 14003KT P6SM SCT250 FM261700 14007KT P6SM BKN040

May-26@
06:00 UTC

May-26 @ 06:00 UTC

May-26@
17:00 UTC

May-26 @ 17:00 UTC

TAF KLCK 260548Z 2606/2706 14003KT P6SM SCT250

Expired

Wind
  • 140° at 3 KTS
Cloud Levels
  • Scattered at 25,000' AGL

May-26@
17:00 UTC

May-26 @ 17:00 UTC

May-27@
06:00 UTC

May-27 @ 06:00 UTC

FM261700 14007KT P6SM BKN040

From

From Standard forecast or significant change

Wind
  • 140° at 7 KTS
Cloud Levels
  • Broken at 4,000' AGL